sensor_id;sensor_type;location;lat;lon;timestamp;P1;durP1;ratioP1;P2;durP2;ratioP2
34900;SDS011;21112;51.976;5.660;2022-07-04T00:01:08;2.83;;;1.00;;
34900;SDS011;21112;51.976;5.660;2022-07-04T00:03:34;0.90;;;0.80;;
34900;SDS011;21112;51.976;5.660;2022-07-04T00:06:01;3.33;;;1.00;;
34900;SDS011;21112;51.976;5.660;2022-07-04T00:08:27;1.33;;;0.80;;
34900;SDS011;21112;51.976;5.660;2022-07-04T00:10:54;2.40;;;1.10;;
34900;SDS011;21112;51.976;5.660;2022-07-04T00:13:21;1.67;;;0.80;;
34900;SDS011;21112;51.976;5.660;2022-07-04T00:15:49;5.60;;;1.17;;
34900;SDS011;21112;51.976;5.660;2022-07-04T00:18:15;5.63;;;1.10;;
34900;SDS011;21112;51.976;5.660;2022-07-04T00:20:42;2.33;;;1.00;;
34900;SDS011;21112;51.976;5.660;2022-07-04T00:23:08;1.88;;;1.00;;
34900;SDS011;21112;51.976;5.660;2022-07-04T00:25:35;1.70;;;0.98;;
34900;SDS011;21112;51.976;5.660;2022-07-04T00:28:02;4.38;;;1.00;;
34900;SDS011;21112;51.976;5.660;2022-07-04T00:30:28;1.65;;;0.80;;
34900;SDS011;21112;51.976;5.660;2022-07-04T00:32:58;3.80;;;0.98;;
34900;SDS011;21112;51.976;5.660;2022-07-04T00:35:25;3.15;;;0.90;;
34900;SDS011;21112;51.976;5.660;2022-07-04T00:37:53;2.00;;;0.90;;
34900;SDS011;21112;51.976;5.660;2022-07-04T00:40:19;1.75;;;0.82;;
34900;SDS011;21112;51.976;5.660;2022-07-04T00:42:46;2.70;;;1.00;;
34900;SDS011;21112;51.976;5.660;2022-07-04T00:45:12;2.63;;;1.13;;
34900;SDS011;21112;51.976;5.660;2022-07-04T00:47:39;3.33;;;1.10;;
34900;SDS011;21112;51.976;5.660;2022-07-04T00:50:08;1.70;;;0.82;;
34900;SDS011;21112;51.976;5.660;2022-07-04T00:52:34;2.58;;;0.98;;
34900;SDS011;21112;51.976;5.660;2022-07-04T00:55:01;1.65;;;0.98;;
34900;SDS011;21112;51.976;5.660;2022-07-04T00:57:27;2.75;;;1.20;;
34900;SDS011;21112;51.976;5.660;2022-07-04T00:59:54;3.33;;;0.80;;
34900;SDS011;21112;51.976;5.660;2022-07-04T01:02:21;3.92;;;1.05;;
34900;SDS011;21112;51.976;5.660;2022-07-04T01:04:48;2.22;;;1.10;;
34900;SDS011;21112;51.976;5.660;2022-07-04T01:07:16;1.48;;;0.85;;
34900;SDS011;21112;51.976;5.660;2022-07-04T01:09:43;2.45;;;0.82;;
34900;SDS011;21112;51.976;5.660;2022-07-04T01:12:10;1.98;;;0.80;;
34900;SDS011;21112;51.976;5.660;2022-07-04T01:14:37;2.97;;;0.90;;
34900;SDS011;21112;51.976;5.660;2022-07-04T01:17:05;4.88;;;1.10;;
34900;SDS011;21112;51.976;5.660;2022-07-04T01:19:31;1.58;;;0.90;;
34900;SDS011;21112;51.976;5.660;2022-07-04T01:22:00;0.88;;;0.77;;
34900;SDS011;21112;51.976;5.660;2022-07-04T01:24:31;3.50;;;1.23;;
34900;SDS011;21112;51.976;5.660;2022-07-04T01:26:58;1.35;;;0.90;;
34900;SDS011;21112;51.976;5.660;2022-07-04T01:29:24;2.13;;;0.95;;
34900;SDS011;21112;51.976;5.660;2022-07-04T01:31:51;1.63;;;0.90;;
34900;SDS011;21112;51.976;5.660;2022-07-04T01:34:18;1.65;;;0.80;;
34900;SDS011;21112;51.976;5.660;2022-07-04T01:36:46;3.22;;;0.90;;
34900;SDS011;21112;51.976;5.660;2022-07-04T01:39:15;1.40;;;0.90;;
34900;SDS011;21112;51.976;5.660;2022-07-04T01:41:41;1.05;;;0.63;;
34900;SDS011;21112;51.976;5.660;2022-07-04T01:44:08;2.10;;;0.95;;
34900;SDS011;21112;51.976;5.660;2022-07-04T01:46:34;2.70;;;1.10;;
34900;SDS011;21112;51.976;5.660;2022-07-04T01:49:01;2.15;;;0.95;;
34900;SDS011;21112;51.976;5.660;2022-07-04T01:51:27;1.85;;;0.95;;
34900;SDS011;21112;51.976;5.660;2022-07-04T01:53:54;2.70;;;1.15;;
34900;SDS011;21112;51.976;5.660;2022-07-04T01:56:23;3.00;;;0.98;;
34900;SDS011;21112;51.976;5.660;2022-07-04T01:58:49;2.53;;;0.90;;
34900;SDS011;21112;51.976;5.660;2022-07-04T02:01:16;4.28;;;1.10;;
34900;SDS011;21112;51.976;5.660;2022-07-04T02:03:57;2.45;;;1.00;;
34900;SDS011;21112;51.976;5.660;2022-07-04T02:06:24;4.88;;;1.00;;
34900;SDS011;21112;51.976;5.660;2022-07-04T02:08:50;3.30;;;1.10;;
34900;SDS011;21112;51.976;5.660;2022-07-04T02:11:36;2.83;;;1.05;;
34900;SDS011;21112;51.976;5.660;2022-07-04T02:14:16;1.25;;;0.88;;
34900;SDS011;21112;51.976;5.660;2022-07-04T02:16:44;2.17;;;0.90;;
34900;SDS011;21112;51.976;5.660;2022-07-04T02:19:10;2.15;;;1.00;;
34900;SDS011;21112;51.976;5.660;2022-07-04T02:21:37;1.38;;;0.75;;
34900;SDS011;21112;51.976;5.660;2022-07-04T02:24:04;2.22;;;0.90;;
34900;SDS011;21112;51.976;5.660;2022-07-04T02:26:31;3.03;;;1.02;;
34900;SDS011;21112;51.976;5.660;2022-07-04T02:28:59;2.25;;;0.93;;
34900;SDS011;21112;51.976;5.660;2022-07-04T02:31:26;2.13;;;1.10;;
34900;SDS011;21112;51.976;5.660;2022-07-04T02:33:53;2.42;;;0.95;;
34900;SDS011;21112;51.976;5.660;2022-07-04T02:36:19;3.30;;;1.00;;
34900;SDS011;21112;51.976;5.660;2022-07-04T02:38:46;2.90;;;1.00;;
34900;SDS011;21112;51.976;5.660;2022-07-04T02:41:12;2.40;;;0.90;;
34900;SDS011;21112;51.976;5.660;2022-07-04T02:43:39;3.88;;;1.00;;
34900;SDS011;21112;51.976;5.660;2022-07-04T02:46:08;2.22;;;1.20;;
34900;SDS011;21112;51.976;5.660;2022-07-04T02:48:34;2.15;;;1.02;;
34900;SDS011;21112;51.976;5.660;2022-07-04T02:51:01;1.00;;;0.80;;
34900;SDS011;21112;51.976;5.660;2022-07-04T02:53:28;1.80;;;0.90;;
34900;SDS011;21112;51.976;5.660;2022-07-04T02:55:54;1.83;;;1.00;;
34900;SDS011;21112;51.976;5.660;2022-07-04T02:58:21;2.30;;;1.00;;
34900;SDS011;21112;51.976;5.660;2022-07-04T03:00:50;4.10;;;1.23;;
34900;SDS011;21112;51.976;5.660;2022-07-04T03:03:18;1.45;;;0.80;;
34900;SDS011;21112;51.976;5.660;2022-07-04T03:05:45;1.52;;;0.85;;
34900;SDS011;21112;51.976;5.660;2022-07-04T03:08:13;1.85;;;0.90;;
34900;SDS011;21112;51.976;5.660;2022-07-04T03:13:06;2.63;;;0.95;;
34900;SDS011;21112;51.976;5.660;2022-07-04T03:15:33;4.22;;;1.08;;
34900;SDS011;21112;51.976;5.660;2022-07-04T03:17:59;3.08;;;1.00;;
34900;SDS011;21112;51.976;5.660;2022-07-04T03:20:28;1.35;;;0.90;;
34900;SDS011;21112;51.976;5.660;2022-07-04T03:22:54;3.33;;;1.10;;
34900;SDS011;21112;51.976;5.660;2022-07-04T03:25:21;1.63;;;0.90;;
34900;SDS011;21112;51.976;5.660;2022-07-04T03:27:48;2.47;;;0.90;;
34900;SDS011;21112;51.976;5.660;2022-07-04T03:30:14;1.40;;;0.90;;
34900;SDS011;21112;51.976;5.660;2022-07-04T03:32:41;3.22;;;1.10;;
34900;SDS011;21112;51.976;5.660;2022-07-04T03:35:08;2.80;;;1.20;;
34900;SDS011;21112;51.976;5.660;2022-07-04T03:37:36;1.75;;;1.13;;
34900;SDS011;21112;51.976;5.660;2022-07-04T03:40:03;3.63;;;1.00;;
34900;SDS011;21112;51.976;5.660;2022-07-04T03:42:30;3.20;;;1.02;;
34900;SDS011;21112;51.976;5.660;2022-07-04T03:44:56;1.73;;;1.10;;
34900;SDS011;21112;51.976;5.660;2022-07-04T03:47:25;2.30;;;1.30;;
34900;SDS011;21112;51.976;5.660;2022-07-04T03:52:18;4.10;;;1.55;;
34900;SDS011;21112;51.976;5.660;2022-07-04T03:54:46;2.50;;;1.40;;
34900;SDS011;21112;51.976;5.660;2022-07-04T03:57:12;3.53;;;1.42;;
34900;SDS011;21112;51.976;5.660;2022-07-04T03:59:39;5.10;;;1.33;;
34900;SDS011;21112;51.976;5.660;2022-07-04T04:02:05;2.47;;;1.15;;
34900;SDS011;21112;51.976;5.660;2022-07-04T04:04:35;5.10;;;2.23;;
34900;SDS011;21112;51.976;5.660;2022-07-04T04:07:19;2.97;;;1.20;;
34900;SDS011;21112;51.976;5.660;2022-07-04T04:09:47;4.95;;;2.40;;
34900;SDS011;21112;51.976;5.660;2022-07-04T04:12:14;8.30;;;2.47;;
34900;SDS011;21112;51.976;5.660;2022-07-04T04:14:40;6.07;;;3.15;;
34900;SDS011;21112;51.976;5.660;2022-07-04T04:17:07;2.05;;;1.15;;
34900;SDS011;21112;51.976;5.660;2022-07-04T04:19:33;8.40;;;2.78;;
34900;SDS011;21112;51.976;5.660;2022-07-04T04:22:00;5.22;;;2.50;;
34900;SDS011;21112;51.976;5.660;2022-07-04T04:24:26;5.55;;;2.30;;
34900;SDS011;21112;51.976;5.660;2022-07-04T04:26:55;7.65;;;2.40;;
34900;SDS011;21112;51.976;5.660;2022-07-04T04:29:22;2.67;;;1.30;;
34900;SDS011;21112;51.976;5.660;2022-07-04T04:31:49;3.42;;;1.52;;
34900;SDS011;21112;51.976;5.660;2022-07-04T04:34:15;4.47;;;1.60;;
34900;SDS011;21112;51.976;5.660;2022-07-04T04:36:42;2.97;;;1.30;;
34900;SDS011;21112;51.976;5.660;2022-07-04T04:39:08;3.95;;;1.85;;
34900;SDS011;21112;51.976;5.660;2022-07-04T04:41:35;2.92;;;1.73;;
34900;SDS011;21112;51.976;5.660;2022-07-04T04:44:03;4.60;;;1.40;;
34900;SDS011;21112;51.976;5.660;2022-07-04T04:48:57;3.13;;;1.55;;
34900;SDS011;21112;51.976;5.660;2022-07-04T04:51:24;8.05;;;3.75;;
34900;SDS011;21112;51.976;5.660;2022-07-04T04:53:51;5.45;;;2.55;;
34900;SDS011;21112;51.976;5.660;2022-07-04T04:56:18;2.65;;;1.40;;
34900;SDS011;21112;51.976;5.660;2022-07-04T04:58:44;4.80;;;1.90;;
34900;SDS011;21112;51.976;5.660;2022-07-04T05:01:12;5.75;;;2.05;;
34900;SDS011;21112;51.976;5.660;2022-07-04T05:03:40;2.00;;;1.23;;
34900;SDS011;21112;51.976;5.660;2022-07-04T05:06:06;2.40;;;1.27;;
34900;SDS011;21112;51.976;5.660;2022-07-04T05:08:33;3.75;;;1.40;;
34900;SDS011;21112;51.976;5.660;2022-07-04T05:11:00;8.07;;;2.63;;
34900;SDS011;21112;51.976;5.660;2022-07-04T05:13:26;4.60;;;1.77;;
34900;SDS011;21112;51.976;5.660;2022-07-04T05:15:53;6.18;;;2.45;;
34900;SDS011;21112;51.976;5.660;2022-07-04T05:18:21;6.47;;;2.25;;
34900;SDS011;21112;51.976;5.660;2022-07-04T05:20:47;4.30;;;2.08;;
34900;SDS011;21112;51.976;5.660;2022-07-04T05:23:14;4.18;;;1.90;;
34900;SDS011;21112;51.976;5.660;2022-07-04T05:25:40;5.30;;;2.00;;
34900;SDS011;21112;51.976;5.660;2022-07-04T05:28:08;5.22;;;2.58;;
34900;SDS011;21112;51.976;5.660;2022-07-04T05:30:35;8.02;;;2.65;;
34900;SDS011;21112;51.976;5.660;2022-07-04T05:33:01;7.05;;;2.55;;
34900;SDS011;21112;51.976;5.660;2022-07-04T05:35:29;7.55;;;2.00;;
34900;SDS011;21112;51.976;5.660;2022-07-04T05:40:23;2.70;;;1.38;;
34900;SDS011;21112;51.976;5.660;2022-07-04T05:42:50;7.32;;;2.92;;
34900;SDS011;21112;51.976;5.660;2022-07-04T05:45:17;10.15;;;3.00;;
34900;SDS011;21112;51.976;5.660;2022-07-04T05:47:43;6.93;;;2.40;;
34900;SDS011;21112;51.976;5.660;2022-07-04T05:50:10;4.45;;;2.08;;
34900;SDS011;21112;51.976;5.660;2022-07-04T05:52:38;2.55;;;1.58;;
34900;SDS011;21112;51.976;5.660;2022-07-04T05:55:05;5.55;;;1.48;;
34900;SDS011;21112;51.976;5.660;2022-07-04T05:57:32;6.07;;;1.80;;
34900;SDS011;21112;51.976;5.660;2022-07-04T05:59:59;6.70;;;2.45;;
34900;SDS011;21112;51.976;5.660;2022-07-04T06:02:26;3.75;;;1.42;;
34900;SDS011;21112;51.976;5.660;2022-07-04T06:04:52;8.52;;;2.22;;
34900;SDS011;21112;51.976;5.660;2022-07-04T06:07:19;4.63;;;1.92;;
34900;SDS011;21112;51.976;5.660;2022-07-04T06:09:47;3.38;;;1.33;;
34900;SDS011;21112;51.976;5.660;2022-07-04T06:12:13;5.82;;;2.17;;
34900;SDS011;21112;51.976;5.660;2022-07-04T06:14:40;9.43;;;1.90;;
34900;SDS011;21112;51.976;5.660;2022-07-04T06:17:07;4.43;;;2.03;;
34900;SDS011;21112;51.976;5.660;2022-07-04T06:19:34;9.93;;;2.33;;
34900;SDS011;21112;51.976;5.660;2022-07-04T06:22:01;4.05;;;1.95;;
34900;SDS011;21112;51.976;5.660;2022-07-04T06:24:27;6.43;;;2.40;;
34900;SDS011;21112;51.976;5.660;2022-07-04T06:26:56;3.95;;;1.60;;
34900;SDS011;21112;51.976;5.660;2022-07-04T06:29:23;3.17;;;1.42;;
34900;SDS011;21112;51.976;5.660;2022-07-04T06:31:49;5.50;;;2.65;;
34900;SDS011;21112;51.976;5.660;2022-07-04T06:34:16;5.15;;;1.95;;
34900;SDS011;21112;51.976;5.660;2022-07-04T06:37:01;4.82;;;1.80;;
34900;SDS011;21112;51.976;5.660;2022-07-04T06:39:27;7.80;;;2.47;;
34900;SDS011;21112;51.976;5.660;2022-07-04T06:41:54;4.70;;;1.92;;
34900;SDS011;21112;51.976;5.660;2022-07-04T06:44:22;9.05;;;2.80;;
34900;SDS011;21112;51.976;5.660;2022-07-04T06:46:49;5.28;;;2.03;;
34900;SDS011;21112;51.976;5.660;2022-07-04T06:49:16;9.00;;;2.97;;
34900;SDS011;21112;51.976;5.660;2022-07-04T06:51:46;5.18;;;2.60;;
34900;SDS011;21112;51.976;5.660;2022-07-04T06:54:12;11.80;;;3.22;;
34900;SDS011;21112;51.976;5.660;2022-07-04T06:56:39;9.45;;;3.08;;
34900;SDS011;21112;51.976;5.660;2022-07-04T06:59:05;9.27;;;3.10;;
34900;SDS011;21112;51.976;5.660;2022-07-04T07:01:33;10.48;;;3.22;;
34900;SDS011;21112;51.976;5.660;2022-07-04T07:04:00;5.43;;;2.17;;
34900;SDS011;21112;51.976;5.660;2022-07-04T07:06:28;6.28;;;1.95;;
34900;SDS011;21112;51.976;5.660;2022-07-04T07:08:54;6.45;;;2.55;;
34900;SDS011;21112;51.976;5.660;2022-07-04T07:11:21;6.75;;;2.92;;
34900;SDS011;21112;51.976;5.660;2022-07-04T07:13:48;4.55;;;2.38;;
34900;SDS011;21112;51.976;5.660;2022-07-04T07:16:16;5.43;;;2.70;;
34900;SDS011;21112;51.976;5.660;2022-07-04T07:18:46;8.07;;;3.15;;
34900;SDS011;21112;51.976;5.660;2022-07-04T07:21:14;5.80;;;1.67;;
34900;SDS011;21112;51.976;5.660;2022-07-04T07:23:41;8.98;;;3.10;;
34900;SDS011;21112;51.976;5.660;2022-07-04T07:26:08;8.13;;;2.80;;
34900;SDS011;21112;51.976;5.660;2022-07-04T07:28:34;4.03;;;1.85;;
34900;SDS011;21112;51.976;5.660;2022-07-04T07:31:01;8.88;;;2.78;;
34900;SDS011;21112;51.976;5.660;2022-07-04T07:33:28;13.98;;;3.55;;
34900;SDS011;21112;51.976;5.660;2022-07-04T07:35:56;7.93;;;3.20;;
34900;SDS011;21112;51.976;5.660;2022-07-04T07:38:24;10.93;;;3.35;;
34900;SDS011;21112;51.976;5.660;2022-07-04T07:40:51;13.93;;;3.88;;
34900;SDS011;21112;51.976;5.660;2022-07-04T07:43:17;14.95;;;3.60;;
34900;SDS011;21112;51.976;5.660;2022-07-04T07:45:44;5.18;;;2.13;;
34900;SDS011;21112;51.976;5.660;2022-07-04T07:48:11;11.93;;;3.60;;
34900;SDS011;21112;51.976;5.660;2022-07-04T07:50:37;6.68;;;3.67;;
34900;SDS011;21112;51.976;5.660;2022-07-04T07:53:05;5.63;;;2.63;;
34900;SDS011;21112;51.976;5.660;2022-07-04T07:55:32;10.98;;;3.08;;
34900;SDS011;21112;51.976;5.660;2022-07-04T07:57:59;12.95;;;4.22;;
34900;SDS011;21112;51.976;5.660;2022-07-04T08:00:26;7.55;;;3.20;;
34900;SDS011;21112;51.976;5.660;2022-07-04T08:02:53;10.27;;;3.60;;
34900;SDS011;21112;51.976;5.660;2022-07-04T08:05:37;7.57;;;2.53;;
34900;SDS011;21112;51.976;5.660;2022-07-04T08:08:04;9.48;;;3.35;;
34900;SDS011;21112;51.976;5.660;2022-07-04T08:10:33;4.82;;;2.40;;
34900;SDS011;21112;51.976;5.660;2022-07-04T08:13:00;11.45;;;4.43;;
34900;SDS011;21112;51.976;5.660;2022-07-04T08:15:26;17.52;;;4.35;;
34900;SDS011;21112;51.976;5.660;2022-07-04T08:17:53;10.88;;;4.03;;
34900;SDS011;21112;51.976;5.660;2022-07-04T08:20:20;8.35;;;3.72;;
34900;SDS011;21112;51.976;5.660;2022-07-04T08:22:46;9.35;;;3.60;;
34900;SDS011;21112;51.976;5.660;2022-07-04T08:25:13;15.52;;;4.25;;
34900;SDS011;21112;51.976;5.660;2022-07-04T08:27:45;6.47;;;2.42;;
34900;SDS011;21112;51.976;5.660;2022-07-04T08:30:12;10.05;;;3.45;;
34900;SDS011;21112;51.976;5.660;2022-07-04T08:32:38;5.40;;;2.50;;
34900;SDS011;21112;51.976;5.660;2022-07-04T08:35:06;10.32;;;3.63;;
34900;SDS011;21112;51.976;5.660;2022-07-04T08:37:33;7.35;;;2.97;;
34900;SDS011;21112;51.976;5.660;2022-07-04T08:40:00;10.73;;;2.97;;
34900;SDS011;21112;51.976;5.660;2022-07-04T08:42:33;6.53;;;2.95;;
34900;SDS011;21112;51.976;5.660;2022-07-04T08:45:03;8.75;;;3.05;;
34900;SDS011;21112;51.976;5.660;2022-07-04T08:49:58;6.95;;;2.30;;
34900;SDS011;21112;51.976;5.660;2022-07-04T08:52:30;12.48;;;3.05;;
34900;SDS011;21112;51.976;5.660;2022-07-04T08:54:57;9.98;;;3.20;;
34900;SDS011;21112;51.976;5.660;2022-07-04T08:57:43;10.05;;;2.92;;
34900;SDS011;21112;51.976;5.660;2022-07-04T09:00:29;8.73;;;2.28;;
34900;SDS011;21112;51.976;5.660;2022-07-04T09:02:55;6.38;;;2.40;;
34900;SDS011;21112;51.976;5.660;2022-07-04T09:05:22;4.20;;;1.80;;
34900;SDS011;21112;51.976;5.660;2022-07-04T09:07:51;7.68;;;2.60;;
34900;SDS011;21112;51.976;5.660;2022-07-04T09:12:44;5.90;;;2.03;;
34900;SDS011;21112;51.976;5.660;2022-07-04T09:15:10;8.60;;;2.65;;
34900;SDS011;21112;51.976;5.660;2022-07-04T09:17:38;8.50;;;2.33;;
34900;SDS011;21112;51.976;5.660;2022-07-04T09:20:12;9.88;;;2.60;;
34900;SDS011;21112;51.976;5.660;2022-07-04T09:22:39;7.32;;;2.42;;
34900;SDS011;21112;51.976;5.660;2022-07-04T09:25:06;14.65;;;2.80;;
34900;SDS011;21112;51.976;5.660;2022-07-04T09:27:33;8.27;;;2.10;;
34900;SDS011;21112;51.976;5.660;2022-07-04T09:30:00;6.88;;;2.13;;
34900;SDS011;21112;51.976;5.660;2022-07-04T09:32:34;4.82;;;1.67;;
34900;SDS011;21112;51.976;5.660;2022-07-04T09:35:03;8.52;;;2.50;;
34900;SDS011;21112;51.976;5.660;2022-07-04T09:37:33;13.50;;;2.55;;
34900;SDS011;21112;51.976;5.660;2022-07-04T09:40:00;9.48;;;2.55;;
34900;SDS011;21112;51.976;5.660;2022-07-04T09:42:33;8.38;;;2.08;;
34900;SDS011;21112;51.976;5.660;2022-07-04T09:45:03;3.35;;;1.50;;
34900;SDS011;21112;51.976;5.660;2022-07-04T09:47:30;8.95;;;2.20;;
34900;SDS011;21112;51.976;5.660;2022-07-04T09:50:00;3.80;;;1.60;;
34900;SDS011;21112;51.976;5.660;2022-07-04T09:52:30;6.85;;;1.70;;
34900;SDS011;21112;51.976;5.660;2022-07-04T09:54:57;5.95;;;1.55;;
34900;SDS011;21112;51.976;5.660;2022-07-04T09:57:25;5.88;;;1.40;;
34900;SDS011;21112;51.976;5.660;2022-07-04T09:59:52;4.47;;;1.37;;
34900;SDS011;21112;51.976;5.660;2022-07-04T10:02:18;3.45;;;1.20;;
34900;SDS011;21112;51.976;5.660;2022-07-04T10:04:45;5.90;;;1.50;;
34900;SDS011;21112;51.976;5.660;2022-07-04T10:07:17;9.43;;;1.83;;
34900;SDS011;21112;51.976;5.660;2022-07-04T10:09:56;8.00;;;1.50;;
34900;SDS011;21112;51.976;5.660;2022-07-04T10:12:26;6.90;;;1.73;;
34900;SDS011;21112;51.976;5.660;2022-07-04T10:14:53;6.85;;;1.65;;
34900;SDS011;21112;51.976;5.660;2022-07-04T10:17:20;5.28;;;1.70;;
34900;SDS011;21112;51.976;5.660;2022-07-04T10:19:47;3.97;;;1.58;;
34900;SDS011;21112;51.976;5.660;2022-07-04T10:22:15;5.70;;;1.70;;
34900;SDS011;21112;51.976;5.660;2022-07-04T10:24:43;4.85;;;1.42;;
34900;SDS011;21112;51.976;5.660;2022-07-04T10:27:11;5.80;;;1.40;;
34900;SDS011;21112;51.976;5.660;2022-07-04T10:29:39;2.00;;;1.17;;
34900;SDS011;21112;51.976;5.660;2022-07-04T10:32:05;2.15;;;1.20;;
34900;SDS011;21112;51.976;5.660;2022-07-04T10:34:38;5.10;;;1.30;;
34900;SDS011;21112;51.976;5.660;2022-07-04T10:37:06;4.18;;;1.27;;
34900;SDS011;21112;51.976;5.660;2022-07-04T10:39:33;4.60;;;1.47;;
34900;SDS011;21112;51.976;5.660;2022-07-04T10:41:59;4.20;;;1.52;;
34900;SDS011;21112;51.976;5.660;2022-07-04T10:44:28;4.00;;;1.45;;
34900;SDS011;21112;51.976;5.660;2022-07-04T10:47:02;1.98;;;1.10;;
34900;SDS011;21112;51.976;5.660;2022-07-04T10:49:29;3.75;;;1.08;;
34900;SDS011;21112;51.976;5.660;2022-07-04T10:51:57;5.78;;;1.63;;
34900;SDS011;21112;51.976;5.660;2022-07-04T10:54:28;3.95;;;1.20;;
34900;SDS011;21112;51.976;5.660;2022-07-04T10:56:56;4.90;;;1.58;;
34900;SDS011;21112;51.976;5.660;2022-07-04T10:59:24;2.88;;;1.20;;
34900;SDS011;21112;51.976;5.660;2022-07-04T11:04:50;5.50;;;1.80;;
34900;SDS011;21112;51.976;5.660;2022-07-04T11:07:17;7.43;;;2.00;;
34900;SDS011;21112;51.976;5.660;2022-07-04T11:09:44;3.38;;;1.30;;
34900;SDS011;21112;51.976;5.660;2022-07-04T11:12:11;4.95;;;1.80;;
34900;SDS011;21112;51.976;5.660;2022-07-04T11:17:06;6.75;;;1.40;;
34900;SDS011;21112;51.976;5.660;2022-07-04T11:19:33;2.65;;;1.10;;
34900;SDS011;21112;51.976;5.660;2022-07-04T11:22:01;3.42;;;1.17;;
34900;SDS011;21112;51.976;5.660;2022-07-04T11:24:30;4.07;;;1.48;;
34900;SDS011;21112;51.976;5.660;2022-07-04T11:26:57;7.45;;;1.95;;
34900;SDS011;21112;51.976;5.660;2022-07-04T11:29:23;4.85;;;1.70;;
34900;SDS011;21112;51.976;5.660;2022-07-04T11:31:50;4.10;;;1.58;;
34900;SDS011;21112;51.976;5.660;2022-07-04T11:34:17;6.70;;;1.63;;
34900;SDS011;21112;51.976;5.660;2022-07-04T11:36:45;5.55;;;1.55;;
34900;SDS011;21112;51.976;5.660;2022-07-04T11:39:13;4.25;;;1.17;;
34900;SDS011;21112;51.976;5.660;2022-07-04T11:41:44;4.57;;;1.65;;
34900;SDS011;21112;51.976;5.660;2022-07-04T11:44:29;6.30;;;1.73;;
34900;SDS011;21112;51.976;5.660;2022-07-04T11:47:13;3.83;;;1.42;;
34900;SDS011;21112;51.976;5.660;2022-07-04T11:49:42;4.55;;;1.35;;
34900;SDS011;21112;51.976;5.660;2022-07-04T11:52:09;5.28;;;1.58;;
34900;SDS011;21112;51.976;5.660;2022-07-04T11:54:37;5.22;;;1.70;;
34900;SDS011;21112;51.976;5.660;2022-07-04T11:57:08;3.13;;;1.27;;
34900;SDS011;21112;51.976;5.660;2022-07-04T11:59:34;5.30;;;1.63;;
34900;SDS011;21112;51.976;5.660;2022-07-04T12:02:09;10.00;;;1.75;;
34900;SDS011;21112;51.976;5.660;2022-07-04T12:04:36;3.60;;;1.30;;
34900;SDS011;21112;51.976;5.660;2022-07-04T12:07:07;7.68;;;1.30;;
34900;SDS011;21112;51.976;5.660;2022-07-04T12:09:34;2.08;;;1.13;;
34900;SDS011;21112;51.976;5.660;2022-07-04T12:12:02;2.22;;;1.20;;
34900;SDS011;21112;51.976;5.660;2022-07-04T12:14:30;2.70;;;1.30;;
34900;SDS011;21112;51.976;5.660;2022-07-04T12:17:13;4.70;;;1.30;;
34900;SDS011;21112;51.976;5.660;2022-07-04T12:19:50;3.88;;;1.42;;
34900;SDS011;21112;51.976;5.660;2022-07-04T12:22:27;3.83;;;1.75;;
34900;SDS011;21112;51.976;5.660;2022-07-04T12:24:55;5.07;;;1.45;;
34900;SDS011;21112;51.976;5.660;2022-07-04T12:27:23;4.95;;;1.40;;
34900;SDS011;21112;51.976;5.660;2022-07-04T12:32:16;8.52;;;1.55;;
34900;SDS011;21112;51.976;5.660;2022-07-04T12:34:42;3.55;;;1.40;;
34900;SDS011;21112;51.976;5.660;2022-07-04T12:37:09;7.40;;;1.70;;
34900;SDS011;21112;51.976;5.660;2022-07-04T12:39:37;5.38;;;1.23;;
34900;SDS011;21112;51.976;5.660;2022-07-04T12:42:05;4.70;;;1.27;;
34900;SDS011;21112;51.976;5.660;2022-07-04T12:44:33;2.27;;;0.97;;
34900;SDS011;21112;51.976;5.660;2022-07-04T12:47:03;2.65;;;1.30;;
34900;SDS011;21112;51.976;5.660;2022-07-04T12:49:30;5.30;;;1.33;;
34900;SDS011;21112;51.976;5.660;2022-07-04T12:52:07;4.22;;;1.35;;
34900;SDS011;21112;51.976;5.660;2022-07-04T12:54:34;4.35;;;1.10;;
34900;SDS011;21112;51.976;5.660;2022-07-04T12:57:05;4.28;;;1.17;;
34900;SDS011;21112;51.976;5.660;2022-07-04T12:59:31;3.10;;;1.48;;
34900;SDS011;21112;51.976;5.660;2022-07-04T13:02:00;3.35;;;1.40;;
34900;SDS011;21112;51.976;5.660;2022-07-04T13:04:26;6.60;;;1.52;;
34900;SDS011;21112;51.976;5.660;2022-07-04T13:06:54;1.65;;;0.95;;
34900;SDS011;21112;51.976;5.660;2022-07-04T13:09:22;4.00;;;1.25;;
34900;SDS011;21112;51.976;5.660;2022-07-04T13:11:48;3.50;;;1.33;;
34900;SDS011;21112;51.976;5.660;2022-07-04T13:14:33;1.45;;;1.05;;
34900;SDS011;21112;51.976;5.660;2022-07-04T13:17:01;3.42;;;1.20;;
34900;SDS011;21112;51.976;5.660;2022-07-04T13:19:27;3.38;;;1.10;;
34900;SDS011;21112;51.976;5.660;2022-07-04T13:21:54;2.22;;;0.90;;
34900;SDS011;21112;51.976;5.660;2022-07-04T13:24:21;2.83;;;1.10;;
34900;SDS011;21112;51.976;5.660;2022-07-04T13:26:47;1.90;;;0.80;;
34900;SDS011;21112;51.976;5.660;2022-07-04T13:29:14;2.42;;;1.00;;
34900;SDS011;21112;51.976;5.660;2022-07-04T13:31:40;3.80;;;1.10;;
34900;SDS011;21112;51.976;5.660;2022-07-04T13:34:08;1.70;;;1.10;;
34900;SDS011;21112;51.976;5.660;2022-07-04T13:36:35;3.65;;;1.30;;
34900;SDS011;21112;51.976;5.660;2022-07-04T13:39:02;3.97;;;1.17;;
34900;SDS011;21112;51.976;5.660;2022-07-04T13:41:30;3.53;;;1.15;;
34900;SDS011;21112;51.976;5.660;2022-07-04T13:43:56;4.43;;;1.27;;
34900;SDS011;21112;51.976;5.660;2022-07-04T13:46:23;1.73;;;0.80;;
34900;SDS011;21112;51.976;5.660;2022-07-04T13:48:50;2.13;;;0.90;;
34900;SDS011;21112;51.976;5.660;2022-07-04T13:51:18;2.03;;;1.10;;
34900;SDS011;21112;51.976;5.660;2022-07-04T13:53:44;2.58;;;1.00;;
34900;SDS011;21112;51.976;5.660;2022-07-04T13:56:11;4.10;;;1.30;;
34900;SDS011;21112;51.976;5.660;2022-07-04T13:58:41;2.58;;;1.10;;
34900;SDS011;21112;51.976;5.660;2022-07-04T14:01:08;3.63;;;1.10;;
34900;SDS011;21112;51.976;5.660;2022-07-04T14:03:35;1.95;;;1.15;;
34900;SDS011;21112;51.976;5.660;2022-07-04T14:06:02;3.67;;;0.90;;
34900;SDS011;21112;51.976;5.660;2022-07-04T14:08:29;2.47;;;1.00;;
34900;SDS011;21112;51.976;5.660;2022-07-04T14:10:56;2.45;;;1.00;;
34900;SDS011;21112;51.976;5.660;2022-07-04T14:13:23;3.83;;;1.00;;
34900;SDS011;21112;51.976;5.660;2022-07-04T14:15:49;3.60;;;1.20;;
34900;SDS011;21112;51.976;5.660;2022-07-04T14:18:16;3.72;;;1.50;;
34900;SDS011;21112;51.976;5.660;2022-07-04T14:20:42;3.65;;;1.15;;
34900;SDS011;21112;51.976;5.660;2022-07-04T14:23:09;4.05;;;1.00;;
34900;SDS011;21112;51.976;5.660;2022-07-04T14:25:37;2.63;;;1.00;;
34900;SDS011;21112;51.976;5.660;2022-07-04T14:28:05;1.48;;;1.00;;
34900;SDS011;21112;51.976;5.660;2022-07-04T14:30:31;2.35;;;0.88;;
34900;SDS011;21112;51.976;5.660;2022-07-04T14:32:58;2.97;;;1.20;;
34900;SDS011;21112;51.976;5.660;2022-07-04T14:35:24;1.90;;;0.98;;
34900;SDS011;21112;51.976;5.660;2022-07-04T14:37:51;2.45;;;1.05;;
34900;SDS011;21112;51.976;5.660;2022-07-04T14:40:20;2.85;;;0.93;;
34900;SDS011;21112;51.976;5.660;2022-07-04T14:42:48;1.77;;;0.82;;
34900;SDS011;21112;51.976;5.660;2022-07-04T14:45:15;6.00;;;0.98;;
34900;SDS011;21112;51.976;5.660;2022-07-04T14:47:42;1.88;;;0.63;;
34900;SDS011;21112;51.976;5.660;2022-07-04T14:50:09;1.13;;;0.80;;
34900;SDS011;21112;51.976;5.660;2022-07-04T14:52:35;1.90;;;1.08;;
34900;SDS011;21112;51.976;5.660;2022-07-04T14:55:02;3.33;;;1.10;;
34900;SDS011;21112;51.976;5.660;2022-07-04T14:57:29;4.88;;;1.00;;
34900;SDS011;21112;51.976;5.660;2022-07-04T14:59:57;2.97;;;0.90;;
34900;SDS011;21112;51.976;5.660;2022-07-04T15:02:23;4.22;;;1.00;;
34900;SDS011;21112;51.976;5.660;2022-07-04T15:04:50;5.35;;;1.10;;
34900;SDS011;21112;51.976;5.660;2022-07-04T15:07:17;3.92;;;1.23;;
34900;SDS011;21112;51.976;5.660;2022-07-04T15:09:43;2.33;;;0.98;;
34900;SDS011;21112;51.976;5.660;2022-07-04T15:12:10;4.03;;;1.10;;
34900;SDS011;21112;51.976;5.660;2022-07-04T15:14:36;4.72;;;1.20;;